»·PEaware :: N48427 KSAN-KPSP

N48427 :: KSAN-KPSP

FLIGHT INFORMATION

Flight Status: Arrived
Operator: Privately registered:
United States
More flights under this callsign
Pilot: Carson T. (20437)
Aircraft: CESSNA 172 SKYHAWK
(C172)
More flights by this aircraft type
Origin: KSAN San Diego Intl-Lindbergh
United States
Destination: KPSP Palm Springs Intl
United States
More flights between these airports :: More routes between these airports
Route:
File this flight plan on PilotEdge
Remarks:
Altitude:
(Current/Filed)
7,500ft
Speed:
(Current/Filed)
120kts
Departed: 27-Oct-18 10:11 AM
Arrived: 27-Oct-18 11:01 AM
Distance/Time
Traveled:
74nm/0:49
Distance/Time
To Go:
Arrived

Flight Plot

Page will automatically refresh every two minutes.


Map Options




Map Legend


Flown Route
Filed Route
Departure Airport
Arrival Airport
Navaid (VOR, NDB)
Fix

Horizontal Profiles

Position Reports

Time Latitude Longitude Heading Altitude Ground
Speed
27-Oct-18 10:06 32.732078 -117.176572 194 21ft 0kts
27-Oct-18 10:07 32.732078 -117.176572 194 21ft 0kts
27-Oct-18 10:08 32.732078 -117.176572 194 21ft 0kts
27-Oct-18 10:09 32.732078 -117.176572 194 21ft 0kts
27-Oct-18 10:10 32.731026 -117.175623 131 21ft 10kts
27-Oct-18 10:11 32.730920 -117.175496 138 21ft 0kts
27-Oct-18 10:12 32.730920 -117.175496 138 21ft 0kts
27-Oct-18 10:13 32.731622 -117.181683 285 54ft 75kts
27-Oct-18 10:14 32.737998 -117.208174 284 783ft 85kts
27-Oct-18 10:15 32.755325 -117.227641 320 1491ft 90kts
27-Oct-18 10:16 32.779154 -117.249593 321 1536ft 117kts
27-Oct-18 10:17 32.804304 -117.272887 321 1790ft 109kts
27-Oct-18 10:18 32.828155 -117.295208 321 2286ft 110kts
27-Oct-18 10:19 32.852805 -117.318489 321 2522ft 121kts
27-Oct-18 10:20 32.879699 -117.343861 321 2518ft 125kts
27-Oct-18 10:21 32.906947 -117.369507 321 2516ft 125kts
27-Oct-18 10:22 32.938870 -117.376302 10 2515ft 123kts
27-Oct-18 10:23 32.972288 -117.368807 21 2509ft 121kts
27-Oct-18 10:24 32.998295 -117.343923 39 2724ft 119kts
27-Oct-18 10:25 33.023470 -117.318798 39 3021ft 118kts
27-Oct-18 10:26 33.048666 -117.293717 39 3319ft 118kts
27-Oct-18 10:27 33.073884 -117.268617 38 3617ft 118kts
27-Oct-18 10:28 33.098562 -117.244018 38 3913ft 115kts
27-Oct-18 10:29 33.121630 -117.221028 38 4196ft 114kts
27-Oct-18 10:30 33.145835 -117.196888 38 4495ft 113kts
27-Oct-18 10:31 33.170010 -117.172769 38 4794ft 113kts
27-Oct-18 10:32 33.194234 -117.148581 38 5094ft 113kts
27-Oct-18 10:33 33.218376 -117.124455 38 5393ft 113kts
27-Oct-18 10:34 33.242504 -117.100325 38 5693ft 113kts
27-Oct-18 10:35 33.266551 -117.076256 38 5991ft 112kts
27-Oct-18 10:36 33.290409 -117.052347 38 6290ft 111kts
27-Oct-18 10:37 33.314049 -117.028649 38 6589ft 111kts
27-Oct-18 10:38 33.337685 -117.004939 37 6888ft 111kts
27-Oct-18 10:39 33.361285 -116.981246 37 7187ft 111kts
27-Oct-18 10:40 33.384871 -116.957548 37 7486ft 111kts
27-Oct-18 10:41 33.409746 -116.932514 38 7548ft 122kts
27-Oct-18 10:42 33.435914 -116.906103 38 7552ft 124kts
27-Oct-18 10:43 33.462142 -116.879589 38 7553ft 124kts
27-Oct-18 10:44 33.488496 -116.852848 37 7547ft 124kts
27-Oct-18 10:45 33.515089 -116.826004 37 7541ft 125kts
27-Oct-18 10:46 33.541651 -116.799180 37 7537ft 125kts
27-Oct-18 10:47 33.568061 -116.772494 37 7530ft 125kts
27-Oct-18 10:48 33.594727 -116.745522 37 7521ft 125kts
27-Oct-18 10:49 33.616697 -116.713107 49 7520ft 126kts
27-Oct-18 10:50 33.634599 -116.685414 49 7521ft 126kts
27-Oct-18 10:52 33.659687 -116.646607 49 7520ft 126kts
27-Oct-18 10:52 33.677829 -116.618701 46 7457ft 130kts
27-Oct-18 10:53 33.700160 -116.591933 41 6782ft 105kts
27-Oct-18 10:54 33.722187 -116.565885 41 5862ft 120kts
27-Oct-18 10:55 33.746787 -116.537645 38 4863ft 121kts
27-Oct-18 10:57 33.777780 -116.532115 290 3714ft 109kts
27-Oct-18 10:57 33.763530 -116.548695 180 3296ft 94kts
27-Oct-18 10:59 33.745049 -116.525758 46 3141ft 107kts
27-Oct-18 10:59 33.767655 -116.516551 17 2729ft 109kts
27-Oct-18 11:00 33.792008 -116.496116 41 1920ft 93kts
27-Oct-18 11:01 33.808459 -116.485817 322 1145ft 58kts
27-Oct-18 11:02 33.822818 -116.498695 322 454ft 54kts
27-Oct-18 11:03 33.826900 -116.501411 104 410ft 7kts
27-Oct-18 11:04 33.823390 -116.498082 161 397ft 17kts
27-Oct-18 11:05 33.823092 -116.498081 48 397ft 0kts
27-Oct-18 11:06 33.823092 -116.498081 48 397ft 0kts
27-Oct-18 11:07 33.823092 -116.498081 48 397ft 0kts
27-Oct-18 11:08 33.823092 -116.498081 48 397ft 0kts
27-Oct-18 11:09 33.823092 -116.498081 48 397ft 0kts
27-Oct-18 11:10 33.823092 -116.498081 48 397ft 0kts
27-Oct-18 11:11 33.823092 -116.498081 48 397ft 0kts
27-Oct-18 11:12 33.823092 -116.498081 48 397ft 0kts
27-Oct-18 11:13 33.823092 -116.498081 48 397ft 0kts
27-Oct-18 11:14 33.823092 -116.498081 48 397ft 0kts
27-Oct-18 11:15 33.823092 -116.498081 48 397ft 0kts
27-Oct-18 11:16 33.823092 -116.498081 48 397ft 0kts
27-Oct-18 11:17 33.823092 -116.498081 48 397ft 0kts

Navigation Log

Ident Type
1. KSAN Airport
2. KPSP Airport